HAKGR LEBB-LXGB
Flight info
| Callsign | HAKGR |
|---|---|
| Flight time | 2h 20m |
| Altitude | 24000 |
| Route | AMTOS L14 NEA N864 MAR L27 VJF N10 LINTO |
| Aircraft | B350/L-SBGR/X |
Departure
| Time | 2026-04-28 09:58 |
|---|---|
| Airport | Bilbao Airport (LEBB) |
Arrival
| Time | 2026-04-28 12:18 |
|---|---|
| Airport | Gibraltar Airport (LXGB) |
| Time | Latitude | Longitude | Altitude | Speed | Heading |
|---|---|---|---|---|---|
| 2026-04-28 09:34 | 43.30075 | -2.93109 | 123 ft | 0 kts | 276° |
| 2026-04-28 09:53 | 43.30079 | -2.93124 | 122 ft | 6 kts | 311° |
| 2026-04-28 09:54 | 43.30146 | -2.93132 | 123 ft | 8 kts | 324° |
| 2026-04-28 09:54 | 43.30158 | -2.93239 | 123 ft | 16 kts | 276° |
| 2026-04-28 09:54 | 43.30173 | -2.93424 | 123 ft | 20 kts | 277° |
| 2026-04-28 09:54 | 43.30190 | -2.93610 | 123 ft | 14 kts | 279° |
| 2026-04-28 09:55 | 43.30214 | -2.93699 | 122 ft | 7 kts | 332° |
| 2026-04-28 09:55 | 43.30242 | -2.93704 | 123 ft | 0 kts | 7° |
| 2026-04-28 09:56 | 43.30257 | -2.93700 | 123 ft | 7 kts | 10° |
| 2026-04-28 09:56 | 43.30319 | -2.93685 | 123 ft | 9 kts | 21° |
| 2026-04-28 09:56 | 43.30331 | -2.93648 | 123 ft | 0 kts | 97° |
| 2026-04-28 09:57 | 43.30315 | -2.93466 | 123 ft | 52 kts | 98° |
| 2026-04-28 09:57 | 43.30251 | -2.92683 | 121 ft | 110 kts | 97° |
| 2026-04-28 09:58 | 43.30143 | -2.91530 | 379 ft | 130 kts | 96° |
| 2026-04-28 09:58 | 43.29941 | -2.90262 | 759 ft | 143 kts | 116° |
| 2026-04-28 09:58 | 43.29398 | -2.89109 | 1171 ft | 151 kts | 121° |
| 2026-04-28 09:58 | 43.28811 | -2.87822 | 1517 ft | 163 kts | 118° |
| 2026-04-28 09:59 | 43.28233 | -2.86440 | 1901 ft | 171 kts | 120° |
| 2026-04-28 09:59 | 43.27615 | -2.84961 | 2092 ft | 186 kts | 118° |
| 2026-04-28 09:59 | 43.26968 | -2.83420 | 2418 ft | 185 kts | 120° |
| 2026-04-28 09:59 | 43.26319 | -2.81900 | 2781 ft | 184 kts | 118° |
| 2026-04-28 10:00 | 43.25638 | -2.80390 | 3060 ft | 187 kts | 122° |
| 2026-04-28 10:00 | 43.24964 | -2.78837 | 3318 ft | 190 kts | 120° |
| 2026-04-28 10:00 | 43.24283 | -2.77276 | 3576 ft | 193 kts | 121° |
| 2026-04-28 10:00 | 43.23540 | -2.75740 | 3781 ft | 196 kts | 133° |
| 2026-04-28 10:01 | 43.22416 | -2.74710 | 3913 ft | 201 kts | 160° |
| 2026-04-28 10:01 | 43.21010 | -2.74555 | 4056 ft | 205 kts | 192° |
| 2026-04-28 10:01 | 43.19758 | -2.75493 | 4145 ft | 204 kts | 214° |
| 2026-04-28 10:01 | 43.18461 | -2.76225 | 4280 ft | 202 kts | 198° |
| 2026-04-28 10:02 | 43.17300 | -2.77284 | 4369 ft | 208 kts | 224° |
| 2026-04-28 10:02 | 43.16288 | -2.78699 | 4536 ft | 209 kts | 225° |
| 2026-04-28 10:02 | 43.15272 | -2.80166 | 4646 ft | 212 kts | 224° |
| 2026-04-28 10:02 | 43.14265 | -2.81613 | 4922 ft | 208 kts | 225° |
| 2026-04-28 10:03 | 43.13365 | -2.83128 | 5178 ft | 204 kts | 238° |
| 2026-04-28 10:03 | 43.12739 | -2.84878 | 5451 ft | 205 kts | 245° |
| 2026-04-28 10:03 | 43.12163 | -2.86673 | 5723 ft | 206 kts | 246° |
| 2026-04-28 10:03 | 43.11584 | -2.88471 | 5998 ft | 206 kts | 245° |
| 2026-04-28 10:04 | 43.10979 | -2.90221 | 6271 ft | 206 kts | 244° |
| 2026-04-28 10:04 | 43.10354 | -2.91994 | 6542 ft | 207 kts | 244° |
| 2026-04-28 10:04 | 43.09741 | -2.93777 | 6805 ft | 207 kts | 245° |
| 2026-04-28 10:04 | 43.09129 | -2.95569 | 7070 ft | 207 kts | 245° |
| 2026-04-28 10:05 | 43.08517 | -2.97357 | 7337 ft | 207 kts | 245° |
| 2026-04-28 10:05 | 43.07902 | -2.99151 | 7608 ft | 208 kts | 245° |
| 2026-04-28 10:05 | 43.07290 | -3.00935 | 7883 ft | 207 kts | 245° |
| 2026-04-28 10:05 | 43.06676 | -3.02724 | 8151 ft | 207 kts | 245° |
| 2026-04-28 10:06 | 43.06064 | -3.04506 | 8429 ft | 207 kts | 245° |
| 2026-04-28 10:06 | 43.05452 | -3.06283 | 8707 ft | 206 kts | 245° |
| 2026-04-28 10:06 | 43.04848 | -3.08038 | 8989 ft | 207 kts | 245° |
| 2026-04-28 10:06 | 43.04237 | -3.09813 | 9265 ft | 206 kts | 244° |
| 2026-04-28 10:07 | 43.03626 | -3.11589 | 9543 ft | 207 kts | 245° |
| 2026-04-28 10:07 | 43.03012 | -3.13370 | 9838 ft | 208 kts | 244° |
| 2026-04-28 10:07 | 43.02394 | -3.15162 | 10102 ft | 209 kts | 244° |
| 2026-04-28 10:07 | 43.01773 | -3.16960 | 10364 ft | 210 kts | 245° |
| 2026-04-28 10:08 | 43.01148 | -3.18771 | 10623 ft | 211 kts | 244° |
| 2026-04-28 10:08 | 43.00521 | -3.20585 | 10900 ft | 211 kts | 244° |
| 2026-04-28 10:08 | 42.99746 | -3.22266 | 11170 ft | 210 kts | 223° |
| 2026-04-28 10:08 | 42.98573 | -3.23439 | 11446 ft | 210 kts | 215° |
| 2026-04-28 10:09 | 42.97358 | -3.24559 | 11714 ft | 212 kts | 214° |
| 2026-04-28 10:09 | 42.96130 | -3.25694 | 11988 ft | 213 kts | 215° |
| 2026-04-28 10:09 | 42.94900 | -3.26838 | 12270 ft | 214 kts | 215° |
| 2026-04-28 10:09 | 42.93679 | -3.27973 | 12549 ft | 216 kts | 215° |
| 2026-04-28 10:10 | 42.92421 | -3.29142 | 12836 ft | 217 kts | 214° |
| 2026-04-28 10:10 | 42.91189 | -3.30285 | 13119 ft | 217 kts | 214° |
| 2026-04-28 10:10 | 42.89937 | -3.31446 | 13409 ft | 218 kts | 214° |
| 2026-04-28 10:10 | 42.88677 | -3.32614 | 13699 ft | 219 kts | 214° |
| 2026-04-28 10:11 | 42.87422 | -3.33777 | 13967 ft | 218 kts | 214° |
| 2026-04-28 10:11 | 42.86175 | -3.34931 | 14223 ft | 216 kts | 214° |
| 2026-04-28 10:11 | 42.84938 | -3.36077 | 14490 ft | 214 kts | 214° |
| 2026-04-28 10:11 | 42.83716 | -3.37207 | 14747 ft | 211 kts | 214° |
| 2026-04-28 10:12 | 42.82502 | -3.38330 | 15013 ft | 209 kts | 214° |
| 2026-04-28 10:12 | 42.81301 | -3.39440 | 15271 ft | 208 kts | 214° |
| 2026-04-28 10:12 | 42.80106 | -3.40544 | 15531 ft | 207 kts | 214° |
| 2026-04-28 10:12 | 42.78912 | -3.41646 | 15801 ft | 207 kts | 214° |
| 2026-04-28 10:13 | 42.77723 | -3.42743 | 16072 ft | 207 kts | 214° |
| 2026-04-28 10:13 | 42.76534 | -3.43841 | 16351 ft | 206 kts | 214° |
| 2026-04-28 10:13 | 42.75350 | -3.44933 | 16629 ft | 205 kts | 214° |
| 2026-04-28 10:13 | 42.74167 | -3.46022 | 16909 ft | 207 kts | 214° |
| 2026-04-28 10:14 | 42.72953 | -3.47141 | 17203 ft | 214 kts | 214° |
| 2026-04-28 10:14 | 42.71707 | -3.48288 | 17500 ft | 218 kts | 214° |
| 2026-04-28 10:14 | 42.70439 | -3.49455 | 17797 ft | 222 kts | 214° |
| 2026-04-28 10:14 | 42.69155 | -3.50636 | 18101 ft | 224 kts | 214° |
| 2026-04-28 10:15 | 42.67875 | -3.51813 | 18386 ft | 226 kts | 214° |
| 2026-04-28 10:15 | 42.66568 | -3.53015 | 18641 ft | 227 kts | 214° |
| 2026-04-28 10:15 | 42.65258 | -3.54218 | 18905 ft | 228 kts | 214° |
| 2026-04-28 10:15 | 42.63943 | -3.55425 | 19165 ft | 228 kts | 214° |
| 2026-04-28 10:16 | 42.62627 | -3.56633 | 19426 ft | 229 kts | 214° |
| 2026-04-28 10:16 | 42.61306 | -3.57844 | 19687 ft | 229 kts | 214° |
| 2026-04-28 10:16 | 42.59988 | -3.59052 | 19953 ft | 229 kts | 214° |
| 2026-04-28 10:16 | 42.58665 | -3.60264 | 20231 ft | 229 kts | 214° |
| 2026-04-28 10:17 | 42.57344 | -3.61474 | 20498 ft | 229 kts | 214° |
| 2026-04-28 10:17 | 42.56021 | -3.62684 | 20772 ft | 229 kts | 214° |
| 2026-04-28 10:17 | 42.54702 | -3.63890 | 21047 ft | 228 kts | 214° |
| 2026-04-28 10:17 | 42.53388 | -3.65092 | 21326 ft | 227 kts | 214° |
| 2026-04-28 10:18 | 42.52081 | -3.66286 | 21603 ft | 227 kts | 214° |
| 2026-04-28 10:18 | 42.50774 | -3.67480 | 21886 ft | 226 kts | 214° |
| 2026-04-28 10:18 | 42.49472 | -3.68668 | 22172 ft | 226 kts | 214° |
| 2026-04-28 10:18 | 42.48168 | -3.69857 | 22457 ft | 226 kts | 214° |
| 2026-04-28 10:19 | 42.46867 | -3.71044 | 22753 ft | 225 kts | 214° |
| 2026-04-28 10:19 | 42.45589 | -3.72209 | 23039 ft | 225 kts | 214° |
| 2026-04-28 10:19 | 42.44292 | -3.73390 | 23339 ft | 224 kts | 214° |
| 2026-04-28 10:19 | 42.43001 | -3.74565 | 23629 ft | 223 kts | 214° |
| 2026-04-28 10:20 | 42.41712 | -3.75738 | 23855 ft | 222 kts | 214° |
| 2026-04-28 10:20 | 42.40422 | -3.76911 | 23988 ft | 228 kts | 214° |
| 2026-04-28 10:20 | 42.39083 | -3.78130 | 23997 ft | 236 kts | 214° |
| 2026-04-28 10:20 | 42.37700 | -3.79387 | 24003 ft | 242 kts | 214° |
| 2026-04-28 10:21 | 42.36288 | -3.80669 | 24000 ft | 246 kts | 214° |
| 2026-04-28 10:21 | 42.34857 | -3.81968 | 23996 ft | 250 kts | 214° |
| 2026-04-28 10:21 | 42.33424 | -3.83268 | 23998 ft | 252 kts | 214° |
| 2026-04-28 10:21 | 42.31963 | -3.84593 | 23998 ft | 254 kts | 214° |
| 2026-04-28 10:22 | 42.30505 | -3.85914 | 24000 ft | 251 kts | 214° |
| 2026-04-28 10:22 | 42.29059 | -3.87224 | 23997 ft | 249 kts | 214° |
| 2026-04-28 10:22 | 42.27630 | -3.88517 | 23992 ft | 246 kts | 214° |
| 2026-04-28 10:22 | 42.26217 | -3.89794 | 23987 ft | 243 kts | 214° |
| 2026-04-28 10:23 | 42.24819 | -3.91058 | 23981 ft | 241 kts | 214° |
| 2026-04-28 10:23 | 42.23428 | -3.92315 | 23978 ft | 240 kts | 214° |
| 2026-04-28 10:23 | 42.22044 | -3.93565 | 23980 ft | 239 kts | 214° |
| 2026-04-28 10:23 | 42.20666 | -3.94808 | 23982 ft | 238 kts | 214° |
| 2026-04-28 10:24 | 42.19291 | -3.96049 | 23979 ft | 237 kts | 214° |
| 2026-04-28 10:24 | 42.17919 | -3.97286 | 23980 ft | 237 kts | 214° |
| 2026-04-28 10:24 | 42.16550 | -3.98520 | 23978 ft | 236 kts | 214° |
| 2026-04-28 10:24 | 42.15199 | -3.99737 | 23978 ft | 236 kts | 214° |
| 2026-04-28 10:25 | 42.13833 | -4.00967 | 23979 ft | 236 kts | 214° |
| 2026-04-28 10:25 | 42.12465 | -4.02197 | 23975 ft | 236 kts | 214° |
| 2026-04-28 10:25 | 42.11102 | -4.03423 | 23978 ft | 235 kts | 214° |
| 2026-04-28 10:25 | 42.09739 | -4.04648 | 23978 ft | 236 kts | 214° |
| 2026-04-28 10:26 | 42.08377 | -4.05872 | 23978 ft | 236 kts | 214° |
| 2026-04-28 10:26 | 42.07014 | -4.07095 | 23978 ft | 235 kts | 214° |
| 2026-04-28 10:26 | 42.05652 | -4.08317 | 23977 ft | 235 kts | 214° |
| 2026-04-28 10:26 | 42.04289 | -4.09540 | 23977 ft | 235 kts | 214° |
| 2026-04-28 10:27 | 42.02899 | -4.10680 | 23970 ft | 234 kts | 202° |
| 2026-04-28 10:27 | 42.01306 | -4.11095 | 23987 ft | 234 kts | 187° |
| 2026-04-28 10:27 | 41.99682 | -4.11274 | 23989 ft | 235 kts | 186° |
| 2026-04-28 10:27 | 41.98050 | -4.11449 | 23989 ft | 236 kts | 186° |
| 2026-04-28 10:28 | 41.96411 | -4.11635 | 23989 ft | 237 kts | 187° |
| 2026-04-28 10:28 | 41.94772 | -4.11825 | 23997 ft | 237 kts | 187° |
| 2026-04-28 10:28 | 41.93127 | -4.12013 | 23997 ft | 237 kts | 187° |
| 2026-04-28 10:29 | 41.89829 | -4.12389 | 23985 ft | 238 kts | 187° |
| 2026-04-28 10:29 | 41.88179 | -4.12576 | 23985 ft | 238 kts | 186° |
| 2026-04-28 10:29 | 41.86529 | -4.12764 | 23986 ft | 238 kts | 187° |
| 2026-04-28 10:29 | 41.84876 | -4.12953 | 23986 ft | 238 kts | 187° |
| 2026-04-28 10:30 | 41.83222 | -4.13141 | 23984 ft | 238 kts | 187° |
| 2026-04-28 10:30 | 41.81588 | -4.13327 | 23984 ft | 238 kts | 187° |
| 2026-04-28 10:30 | 41.79936 | -4.13515 | 23983 ft | 238 kts | 187° |
| 2026-04-28 10:30 | 41.78284 | -4.13702 | 23981 ft | 238 kts | 187° |
| 2026-04-28 10:31 | 41.76630 | -4.13890 | 23984 ft | 238 kts | 186° |
| 2026-04-28 10:31 | 41.74977 | -4.14078 | 23983 ft | 238 kts | 186° |
| 2026-04-28 10:31 | 41.73323 | -4.14265 | 23984 ft | 239 kts | 186° |
| 2026-04-28 10:31 | 41.71668 | -4.14453 | 23984 ft | 238 kts | 186° |
| 2026-04-28 10:32 | 41.70012 | -4.14641 | 23978 ft | 238 kts | 186° |
| 2026-04-28 10:32 | 41.68358 | -4.14828 | 23979 ft | 239 kts | 186° |
| 2026-04-28 10:32 | 41.66704 | -4.15015 | 23979 ft | 239 kts | 186° |
| 2026-04-28 10:32 | 41.65047 | -4.15202 | 23979 ft | 239 kts | 186° |
| 2026-04-28 10:33 | 41.63392 | -4.15390 | 23978 ft | 239 kts | 186° |
| 2026-04-28 10:33 | 41.61738 | -4.15577 | 23978 ft | 238 kts | 186° |
| 2026-04-28 10:33 | 41.60085 | -4.15763 | 23979 ft | 238 kts | 186° |
| 2026-04-28 10:33 | 41.58986 | -4.15888 | 23978 ft | 238 kts | 186° |
| 2026-04-28 10:34 | 41.56796 | -4.16135 | 23978 ft | 238 kts | 186° |
| 2026-04-28 10:34 | 41.55141 | -4.16322 | 23978 ft | 238 kts | 186° |
| 2026-04-28 10:34 | 41.53487 | -4.16508 | 23978 ft | 238 kts | 186° |
| 2026-04-28 10:34 | 41.52391 | -4.16631 | 23978 ft | 238 kts | 186° |
| 2026-04-28 10:35 | 41.50738 | -4.16818 | 23978 ft | 238 kts | 186° |
| 2026-04-28 10:35 | 41.48528 | -4.17067 | 23973 ft | 238 kts | 187° |
| 2026-04-28 10:35 | 41.47435 | -4.17190 | 23975 ft | 237 kts | 187° |
| 2026-04-28 10:35 | 41.45793 | -4.17374 | 23976 ft | 237 kts | 187° |
| 2026-04-28 10:36 | 41.44153 | -4.17559 | 23974 ft | 236 kts | 187° |
| 2026-04-28 10:36 | 41.42518 | -4.17743 | 23973 ft | 236 kts | 187° |
| 2026-04-28 10:36 | 41.40880 | -4.17926 | 23972 ft | 236 kts | 187° |
| 2026-04-28 10:36 | 41.39246 | -4.18110 | 23973 ft | 236 kts | 187° |
| 2026-04-28 10:37 | 41.37610 | -4.18294 | 23975 ft | 236 kts | 187° |
| 2026-04-28 10:37 | 41.35977 | -4.18477 | 23974 ft | 235 kts | 187° |
| 2026-04-28 10:37 | 41.34344 | -4.18660 | 23974 ft | 235 kts | 187° |
| 2026-04-28 10:37 | 41.32736 | -4.18840 | 23974 ft | 235 kts | 187° |
| 2026-04-28 10:38 | 41.31105 | -4.19024 | 23973 ft | 235 kts | 187° |
| 2026-04-28 10:38 | 41.29474 | -4.19206 | 23974 ft | 235 kts | 187° |
| 2026-04-28 10:38 | 41.27840 | -4.19389 | 23974 ft | 235 kts | 187° |
| 2026-04-28 10:38 | 41.26211 | -4.19571 | 23972 ft | 235 kts | 187° |
| 2026-04-28 10:39 | 41.24581 | -4.19753 | 23969 ft | 235 kts | 187° |
| 2026-04-28 10:39 | 41.22955 | -4.19935 | 23970 ft | 234 kts | 187° |
| 2026-04-28 10:39 | 41.21331 | -4.20117 | 23969 ft | 234 kts | 187° |
| 2026-04-28 10:39 | 41.19701 | -4.20298 | 23969 ft | 234 kts | 187° |
| 2026-04-28 10:40 | 41.18075 | -4.20480 | 23977 ft | 234 kts | 187° |
| 2026-04-28 10:40 | 41.16455 | -4.20661 | 23977 ft | 234 kts | 187° |
| 2026-04-28 10:40 | 41.14857 | -4.20839 | 23977 ft | 234 kts | 187° |
| 2026-04-28 10:40 | 41.13238 | -4.21019 | 23976 ft | 234 kts | 187° |
| 2026-04-28 10:41 | 41.11618 | -4.21200 | 23973 ft | 234 kts | 187° |
| 2026-04-28 10:41 | 41.09995 | -4.21381 | 23973 ft | 233 kts | 187° |
| 2026-04-28 10:41 | 41.08377 | -4.21561 | 23977 ft | 233 kts | 187° |
| 2026-04-28 10:41 | 41.06760 | -4.21741 | 23977 ft | 233 kts | 187° |
| 2026-04-28 10:42 | 41.05143 | -4.21920 | 23973 ft | 233 kts | 187° |
| 2026-04-28 10:42 | 41.03527 | -4.22100 | 23979 ft | 233 kts | 187° |
| 2026-04-28 10:42 | 41.01910 | -4.22280 | 23979 ft | 233 kts | 187° |
| 2026-04-28 10:42 | 41.00291 | -4.22459 | 23982 ft | 234 kts | 187° |
| 2026-04-28 10:43 | 40.98672 | -4.22638 | 23979 ft | 234 kts | 187° |
| 2026-04-28 10:43 | 40.97050 | -4.22818 | 23980 ft | 234 kts | 187° |
| 2026-04-28 10:43 | 40.95430 | -4.22997 | 23979 ft | 234 kts | 187° |
| 2026-04-28 10:43 | 40.93812 | -4.23176 | 23979 ft | 234 kts | 187° |
| 2026-04-28 10:44 | 40.92194 | -4.23355 | 23980 ft | 234 kts | 187° |
| 2026-04-28 10:44 | 40.90590 | -4.23532 | 23979 ft | 234 kts | 187° |
| 2026-04-28 10:44 | 40.88972 | -4.23712 | 23979 ft | 233 kts | 187° |
| 2026-04-28 10:44 | 40.87352 | -4.23890 | 23979 ft | 234 kts | 187° |
| 2026-04-28 10:45 | 40.85732 | -4.24069 | 23980 ft | 233 kts | 187° |
| 2026-04-28 10:45 | 40.84113 | -4.24248 | 23980 ft | 234 kts | 187° |
| 2026-04-28 10:45 | 40.82490 | -4.24426 | 23975 ft | 234 kts | 187° |
| 2026-04-28 10:45 | 40.80869 | -4.24605 | 23978 ft | 234 kts | 187° |
| 2026-04-28 10:46 | 40.79244 | -4.24784 | 23980 ft | 234 kts | 187° |
| 2026-04-28 10:46 | 40.77619 | -4.24964 | 23978 ft | 234 kts | 187° |
| 2026-04-28 10:46 | 40.75995 | -4.25141 | 23979 ft | 234 kts | 187° |
| 2026-04-28 10:46 | 40.74367 | -4.25321 | 23980 ft | 234 kts | 187° |
| 2026-04-28 10:47 | 40.72743 | -4.25499 | 23980 ft | 235 kts | 187° |
| 2026-04-28 10:47 | 40.71113 | -4.25678 | 23979 ft | 235 kts | 187° |
| 2026-04-28 10:47 | 40.69486 | -4.25857 | 23978 ft | 234 kts | 187° |
| 2026-04-28 10:47 | 40.67860 | -4.26036 | 23981 ft | 234 kts | 187° |
| 2026-04-28 10:48 | 40.66238 | -4.26214 | 23979 ft | 234 kts | 187° |
| 2026-04-28 10:48 | 40.64611 | -4.26392 | 23978 ft | 234 kts | 187° |
| 2026-04-28 10:48 | 40.62986 | -4.26570 | 23978 ft | 234 kts | 187° |
| 2026-04-28 10:48 | 40.61357 | -4.26749 | 23978 ft | 235 kts | 187° |
| 2026-04-28 10:49 | 40.59730 | -4.26927 | 23977 ft | 235 kts | 187° |
| 2026-04-28 10:49 | 40.58097 | -4.27106 | 23974 ft | 235 kts | 187° |
| 2026-04-28 10:49 | 40.56465 | -4.27284 | 23974 ft | 236 kts | 187° |
| 2026-04-28 10:49 | 40.54830 | -4.27463 | 23974 ft | 235 kts | 187° |
| 2026-04-28 10:50 | 40.53201 | -4.27641 | 23973 ft | 235 kts | 187° |
| 2026-04-28 10:50 | 40.51564 | -4.27820 | 23971 ft | 235 kts | 187° |
| 2026-04-28 10:50 | 40.49955 | -4.27995 | 23972 ft | 235 kts | 187° |
| 2026-04-28 10:50 | 40.48321 | -4.28174 | 23971 ft | 235 kts | 187° |
| 2026-04-28 10:51 | 40.46689 | -4.28352 | 23970 ft | 236 kts | 187° |
| 2026-04-28 10:51 | 40.45050 | -4.28530 | 23967 ft | 236 kts | 187° |
| 2026-04-28 10:51 | 40.43419 | -4.28708 | 23970 ft | 236 kts | 187° |
| 2026-04-28 10:51 | 40.41782 | -4.28887 | 23969 ft | 235 kts | 187° |
| 2026-04-28 10:52 | 40.40150 | -4.29064 | 23968 ft | 235 kts | 186° |
| 2026-04-28 10:52 | 40.38516 | -4.29242 | 23958 ft | 236 kts | 187° |
| 2026-04-28 10:52 | 40.36878 | -4.29420 | 23961 ft | 236 kts | 187° |
| 2026-04-28 10:52 | 40.35240 | -4.29598 | 23961 ft | 236 kts | 187° |
| 2026-04-28 10:53 | 40.33600 | -4.29776 | 23963 ft | 236 kts | 187° |
| 2026-04-28 10:53 | 40.31980 | -4.29952 | 23963 ft | 236 kts | 187° |
| 2026-04-28 10:53 | 40.30341 | -4.30130 | 23953 ft | 237 kts | 187° |
| 2026-04-28 10:53 | 40.28701 | -4.30308 | 23953 ft | 236 kts | 187° |
| 2026-04-28 10:54 | 40.27061 | -4.30486 | 23952 ft | 236 kts | 187° |
| 2026-04-28 10:54 | 40.25421 | -4.30664 | 23952 ft | 236 kts | 187° |
| 2026-04-28 10:54 | 40.23783 | -4.30841 | 23954 ft | 236 kts | 187° |
| 2026-04-28 10:54 | 40.22148 | -4.31018 | 23955 ft | 236 kts | 187° |
| 2026-04-28 10:55 | 40.20507 | -4.31196 | 23949 ft | 236 kts | 187° |
| 2026-04-28 10:55 | 40.18873 | -4.31373 | 23949 ft | 236 kts | 187° |
| 2026-04-28 10:55 | 40.17235 | -4.31550 | 23946 ft | 236 kts | 187° |
| 2026-04-28 10:55 | 40.15596 | -4.31727 | 23950 ft | 236 kts | 187° |
| 2026-04-28 10:56 | 40.13975 | -4.31902 | 23950 ft | 237 kts | 187° |
| 2026-04-28 10:56 | 40.12312 | -4.32081 | 23944 ft | 237 kts | 187° |
| 2026-04-28 10:56 | 40.10694 | -4.32256 | 23945 ft | 237 kts | 187° |
| 2026-04-28 10:56 | 40.09052 | -4.32433 | 23945 ft | 237 kts | 187° |
| 2026-04-28 10:57 | 40.07404 | -4.32611 | 23946 ft | 237 kts | 187° |
| 2026-04-28 10:57 | 40.05761 | -4.32788 | 23946 ft | 237 kts | 187° |
| 2026-04-28 10:57 | 40.04113 | -4.32965 | 23946 ft | 237 kts | 187° |
| 2026-04-28 10:57 | 40.02467 | -4.33142 | 23946 ft | 237 kts | 187° |
| 2026-04-28 10:58 | 40.00818 | -4.33320 | 23943 ft | 237 kts | 187° |
| 2026-04-28 10:58 | 39.99171 | -4.33497 | 23944 ft | 237 kts | 187° |
| 2026-04-28 10:58 | 39.97520 | -4.33675 | 23944 ft | 237 kts | 187° |
| 2026-04-28 10:58 | 39.95902 | -4.33978 | 23942 ft | 234 kts | 192° |
| 2026-04-28 10:59 | 39.94308 | -4.34325 | 23937 ft | 235 kts | 191° |
| 2026-04-28 10:59 | 39.92694 | -4.34656 | 23938 ft | 235 kts | 191° |
| 2026-04-28 10:59 | 39.91073 | -4.35003 | 23938 ft | 236 kts | 191° |
| 2026-04-28 10:59 | 39.89456 | -4.35355 | 23939 ft | 236 kts | 191° |
| 2026-04-28 11:00 | 39.87832 | -4.35707 | 23939 ft | 236 kts | 191° |
| 2026-04-28 11:00 | 39.86209 | -4.36057 | 23940 ft | 237 kts | 191° |
| 2026-04-28 11:00 | 39.84582 | -4.36408 | 23938 ft | 237 kts | 191° |
| 2026-04-28 11:00 | 39.82960 | -4.36758 | 23939 ft | 237 kts | 191° |
| 2026-04-28 11:01 | 39.81335 | -4.37108 | 23939 ft | 237 kts | 191° |
| 2026-04-28 11:01 | 39.79709 | -4.37458 | 23939 ft | 237 kts | 191° |
| 2026-04-28 11:01 | 39.78086 | -4.37808 | 23938 ft | 237 kts | 191° |
| 2026-04-28 11:01 | 39.76460 | -4.38158 | 23936 ft | 237 kts | 191° |
| 2026-04-28 11:02 | 39.74835 | -4.38507 | 23936 ft | 237 kts | 191° |
| 2026-04-28 11:02 | 39.73212 | -4.38854 | 23936 ft | 237 kts | 191° |
| 2026-04-28 11:02 | 39.71590 | -4.39201 | 23934 ft | 236 kts | 191° |
| 2026-04-28 11:02 | 39.69967 | -4.39547 | 23935 ft | 236 kts | 191° |
| 2026-04-28 11:03 | 39.68344 | -4.39894 | 23935 ft | 236 kts | 191° |
| 2026-04-28 11:03 | 39.66722 | -4.40241 | 23929 ft | 236 kts | 191° |
| 2026-04-28 11:03 | 39.65124 | -4.40582 | 23929 ft | 236 kts | 191° |
| 2026-04-28 11:03 | 39.63504 | -4.40927 | 23928 ft | 236 kts | 191° |
| 2026-04-28 11:04 | 39.61890 | -4.41272 | 23928 ft | 236 kts | 191° |
| 2026-04-28 11:04 | 39.60269 | -4.41617 | 23929 ft | 236 kts | 191° |
| 2026-04-28 11:04 | 39.58646 | -4.41963 | 23928 ft | 235 kts | 191° |
| 2026-04-28 11:04 | 39.57027 | -4.42308 | 23925 ft | 236 kts | 191° |
| 2026-04-28 11:05 | 39.55434 | -4.42647 | 23925 ft | 235 kts | 191° |
| 2026-04-28 11:05 | 39.53797 | -4.42995 | 23925 ft | 235 kts | 191° |
| 2026-04-28 11:05 | 39.52183 | -4.43338 | 23926 ft | 235 kts | 191° |
| 2026-04-28 11:05 | 39.50564 | -4.43683 | 23925 ft | 236 kts | 191° |
| 2026-04-28 11:06 | 39.48965 | -4.44022 | 23917 ft | 236 kts | 190° |
| 2026-04-28 11:06 | 39.47342 | -4.44367 | 23917 ft | 236 kts | 190° |
| 2026-04-28 11:06 | 39.45722 | -4.44710 | 23917 ft | 236 kts | 190° |
| 2026-04-28 11:06 | 39.44099 | -4.45055 | 23917 ft | 236 kts | 190° |
| 2026-04-28 11:07 | 39.42475 | -4.45399 | 23915 ft | 236 kts | 190° |
| 2026-04-28 11:07 | 39.40855 | -4.45742 | 23915 ft | 236 kts | 190° |
| 2026-04-28 11:07 | 39.39232 | -4.46086 | 23913 ft | 236 kts | 190° |
| 2026-04-28 11:07 | 39.37610 | -4.46430 | 23913 ft | 236 kts | 190° |
| 2026-04-28 11:08 | 39.35985 | -4.46774 | 23913 ft | 237 kts | 190° |
| 2026-04-28 11:08 | 39.34358 | -4.47118 | 23913 ft | 237 kts | 190° |
| 2026-04-28 11:08 | 39.32734 | -4.47461 | 23912 ft | 236 kts | 190° |
| 2026-04-28 11:08 | 39.31109 | -4.47805 | 23909 ft | 236 kts | 190° |
| 2026-04-28 11:09 | 39.29485 | -4.48148 | 23913 ft | 237 kts | 190° |
| 2026-04-28 11:09 | 39.27863 | -4.48490 | 23913 ft | 237 kts | 190° |
| 2026-04-28 11:09 | 39.26257 | -4.48829 | 23909 ft | 237 kts | 190° |
| 2026-04-28 11:09 | 39.24628 | -4.49173 | 23913 ft | 236 kts | 190° |
| 2026-04-28 11:10 | 39.23008 | -4.49514 | 23913 ft | 236 kts | 190° |
| 2026-04-28 11:10 | 39.21381 | -4.49857 | 23908 ft | 237 kts | 190° |
| 2026-04-28 11:10 | 39.19755 | -4.50200 | 23908 ft | 237 kts | 190° |
| 2026-04-28 11:10 | 39.18125 | -4.50544 | 23908 ft | 237 kts | 190° |
| 2026-04-28 11:11 | 39.16488 | -4.50888 | 23911 ft | 237 kts | 190° |
| 2026-04-28 11:11 | 39.14859 | -4.51231 | 23912 ft | 237 kts | 190° |
| 2026-04-28 11:11 | 39.13245 | -4.51571 | 23912 ft | 238 kts | 190° |
| 2026-04-28 11:11 | 39.11617 | -4.51912 | 23909 ft | 237 kts | 190° |
| 2026-04-28 11:12 | 39.09980 | -4.52257 | 23908 ft | 238 kts | 190° |
| 2026-04-28 11:12 | 39.08344 | -4.52601 | 23908 ft | 238 kts | 190° |
| 2026-04-28 11:12 | 39.06708 | -4.52944 | 23906 ft | 238 kts | 190° |
| 2026-04-28 11:12 | 39.05074 | -4.53287 | 23908 ft | 238 kts | 190° |
| 2026-04-28 11:13 | 39.03436 | -4.53631 | 23901 ft | 238 kts | 190° |
| 2026-04-28 11:13 | 39.01802 | -4.53973 | 23898 ft | 238 kts | 190° |
| 2026-04-28 11:13 | 39.00161 | -4.54317 | 23898 ft | 239 kts | 190° |
| 2026-04-28 11:13 | 38.98521 | -4.54661 | 23899 ft | 239 kts | 190° |
| 2026-04-28 11:14 | 38.96898 | -4.55000 | 23901 ft | 239 kts | 190° |
| 2026-04-28 11:14 | 38.95253 | -4.55345 | 23902 ft | 239 kts | 190° |
| 2026-04-28 11:14 | 38.93604 | -4.55690 | 23902 ft | 239 kts | 190° |
| 2026-04-28 11:14 | 38.91961 | -4.56033 | 23903 ft | 240 kts | 190° |
| 2026-04-28 11:15 | 38.90311 | -4.56378 | 23901 ft | 240 kts | 190° |
| 2026-04-28 11:15 | 38.88664 | -4.56721 | 23901 ft | 240 kts | 190° |
| 2026-04-28 11:15 | 38.87018 | -4.57065 | 23900 ft | 240 kts | 190° |
| 2026-04-28 11:15 | 38.85371 | -4.57408 | 23898 ft | 240 kts | 190° |
| 2026-04-28 11:16 | 38.83726 | -4.57750 | 23899 ft | 240 kts | 190° |
| 2026-04-28 11:16 | 38.82075 | -4.58094 | 23898 ft | 240 kts | 190° |
| 2026-04-28 11:16 | 38.80452 | -4.58432 | 23898 ft | 240 kts | 190° |
| 2026-04-28 11:16 | 38.78805 | -4.58775 | 23899 ft | 239 kts | 190° |
| 2026-04-28 11:17 | 38.77160 | -4.59117 | 23903 ft | 239 kts | 190° |
| 2026-04-28 11:17 | 38.75514 | -4.59459 | 23901 ft | 240 kts | 190° |
| 2026-04-28 11:17 | 38.73871 | -4.59800 | 23902 ft | 239 kts | 190° |
| 2026-04-28 11:17 | 38.72225 | -4.60142 | 23902 ft | 239 kts | 190° |
| 2026-04-28 11:18 | 38.70580 | -4.60484 | 23901 ft | 239 kts | 190° |
| 2026-04-28 11:18 | 38.68937 | -4.60825 | 23902 ft | 239 kts | 190° |
| 2026-04-28 11:18 | 38.67291 | -4.61166 | 23901 ft | 239 kts | 190° |
| 2026-04-28 11:18 | 38.65643 | -4.61508 | 23902 ft | 239 kts | 190° |
| 2026-04-28 11:19 | 38.63998 | -4.61848 | 23898 ft | 239 kts | 190° |
| 2026-04-28 11:19 | 38.62353 | -4.62189 | 23898 ft | 239 kts | 190° |
| 2026-04-28 11:19 | 38.60711 | -4.62529 | 23898 ft | 239 kts | 190° |
| 2026-04-28 11:19 | 38.59068 | -4.62869 | 23898 ft | 239 kts | 190° |
| 2026-04-28 11:20 | 38.57426 | -4.63208 | 23902 ft | 239 kts | 190° |
| 2026-04-28 11:20 | 38.55783 | -4.63548 | 23907 ft | 239 kts | 190° |
| 2026-04-28 11:20 | 38.54163 | -4.63882 | 23908 ft | 239 kts | 190° |
| 2026-04-28 11:20 | 38.52523 | -4.64222 | 23909 ft | 238 kts | 190° |
| 2026-04-28 11:21 | 38.50886 | -4.64560 | 23906 ft | 238 kts | 190° |
| 2026-04-28 11:21 | 38.49252 | -4.64896 | 23906 ft | 238 kts | 190° |
| 2026-04-28 11:21 | 38.47619 | -4.65233 | 23905 ft | 238 kts | 190° |
| 2026-04-28 11:21 | 38.45989 | -4.65569 | 23904 ft | 237 kts | 190° |
| 2026-04-28 11:22 | 38.44356 | -4.65905 | 23907 ft | 237 kts | 190° |
| 2026-04-28 11:22 | 38.42723 | -4.66242 | 23907 ft | 237 kts | 190° |
| 2026-04-28 11:22 | 38.41643 | -4.66465 | 23907 ft | 237 kts | 190° |
| 2026-04-28 11:22 | 38.40013 | -4.66800 | 23906 ft | 237 kts | 190° |
| 2026-04-28 11:23 | 38.38381 | -4.67136 | 23903 ft | 237 kts | 190° |
| 2026-04-28 11:23 | 38.36754 | -4.67470 | 23906 ft | 237 kts | 190° |
| 2026-04-28 11:23 | 38.35125 | -4.67805 | 23906 ft | 237 kts | 190° |
| 2026-04-28 11:23 | 38.33497 | -4.68139 | 23906 ft | 237 kts | 190° |
| 2026-04-28 11:24 | 38.31869 | -4.68474 | 23912 ft | 237 kts | 190° |
| 2026-04-28 11:24 | 38.30240 | -4.68808 | 23912 ft | 237 kts | 190° |
| 2026-04-28 11:24 | 38.28612 | -4.69142 | 23912 ft | 237 kts | 190° |
| 2026-04-28 11:24 | 38.26981 | -4.69477 | 23912 ft | 237 kts | 190° |
| 2026-04-28 11:25 | 38.25351 | -4.69812 | 23910 ft | 237 kts | 190° |
| 2026-04-28 11:25 | 38.23722 | -4.70146 | 23910 ft | 237 kts | 190° |
| 2026-04-28 11:25 | 38.22095 | -4.70480 | 23910 ft | 237 kts | 190° |
| 2026-04-28 11:25 | 38.20485 | -4.70809 | 23910 ft | 237 kts | 190° |
| 2026-04-28 11:26 | 38.18859 | -4.71142 | 23912 ft | 237 kts | 190° |
| 2026-04-28 11:26 | 38.17227 | -4.71476 | 23909 ft | 237 kts | 190° |
| 2026-04-28 11:26 | 38.15598 | -4.71810 | 23913 ft | 237 kts | 190° |
| 2026-04-28 11:26 | 38.13968 | -4.72143 | 23913 ft | 237 kts | 190° |
| 2026-04-28 11:27 | 38.12335 | -4.72477 | 23914 ft | 238 kts | 190° |
| 2026-04-28 11:27 | 38.10700 | -4.72811 | 23908 ft | 238 kts | 190° |
| 2026-04-28 11:27 | 38.09062 | -4.73145 | 23904 ft | 238 kts | 190° |
| 2026-04-28 11:27 | 38.07426 | -4.73480 | 23906 ft | 237 kts | 190° |
| 2026-04-28 11:28 | 38.05796 | -4.73812 | 23908 ft | 237 kts | 190° |
| 2026-04-28 11:28 | 38.04169 | -4.74144 | 23908 ft | 237 kts | 190° |
| 2026-04-28 11:28 | 38.02541 | -4.74476 | 23908 ft | 237 kts | 190° |
| 2026-04-28 11:28 | 38.00932 | -4.74804 | 23908 ft | 237 kts | 190° |
| 2026-04-28 11:29 | 37.99305 | -4.75135 | 23909 ft | 237 kts | 190° |
| 2026-04-28 11:29 | 37.97680 | -4.75466 | 23911 ft | 237 kts | 190° |
| 2026-04-28 11:29 | 37.96052 | -4.75797 | 23932 ft | 237 kts | 190° |
| 2026-04-28 11:29 | 37.94425 | -4.76128 | 23933 ft | 237 kts | 190° |
| 2026-04-28 11:30 | 37.92797 | -4.76460 | 23933 ft | 237 kts | 190° |
| 2026-04-28 11:30 | 37.89545 | -4.77120 | 23934 ft | 237 kts | 190° |
| 2026-04-28 11:30 | 37.87918 | -4.77451 | 23935 ft | 237 kts | 190° |
| 2026-04-28 11:31 | 37.86293 | -4.77781 | 23934 ft | 236 kts | 190° |
| 2026-04-28 11:31 | 37.84666 | -4.78111 | 23932 ft | 237 kts | 191° |
| 2026-04-28 11:31 | 37.83036 | -4.78441 | 23931 ft | 238 kts | 191° |
| 2026-04-28 11:31 | 37.81402 | -4.78773 | 23932 ft | 238 kts | 191° |
| 2026-04-28 11:32 | 37.79761 | -4.79105 | 23932 ft | 238 kts | 191° |
| 2026-04-28 11:32 | 37.78144 | -4.79432 | 23932 ft | 238 kts | 191° |
| 2026-04-28 11:32 | 37.76502 | -4.79765 | 23932 ft | 238 kts | 191° |
| 2026-04-28 11:32 | 37.74867 | -4.80096 | 23932 ft | 239 kts | 191° |
| 2026-04-28 11:33 | 37.73223 | -4.80428 | 23931 ft | 239 kts | 191° |
| 2026-04-28 11:33 | 37.71581 | -4.80760 | 23929 ft | 239 kts | 191° |
| 2026-04-28 11:33 | 37.69939 | -4.81092 | 23928 ft | 239 kts | 191° |
| 2026-04-28 11:33 | 37.68300 | -4.81423 | 23927 ft | 238 kts | 190° |
| 2026-04-28 11:34 | 37.66664 | -4.81752 | 23921 ft | 238 kts | 191° |
| 2026-04-28 11:34 | 37.65032 | -4.82082 | 23922 ft | 238 kts | 191° |
| 2026-04-28 11:34 | 37.63399 | -4.82411 | 23920 ft | 238 kts | 191° |
| 2026-04-28 11:34 | 37.61765 | -4.82741 | 23919 ft | 238 kts | 191° |
| 2026-04-28 11:35 | 37.60126 | -4.83071 | 23921 ft | 239 kts | 190° |
| 2026-04-28 11:35 | 37.58486 | -4.83401 | 23920 ft | 239 kts | 190° |
| 2026-04-28 11:35 | 37.56865 | -4.83727 | 23919 ft | 239 kts | 190° |
| 2026-04-28 11:35 | 37.55226 | -4.84057 | 23919 ft | 239 kts | 190° |
| 2026-04-28 11:36 | 37.53579 | -4.84388 | 23915 ft | 239 kts | 190° |
| 2026-04-28 11:36 | 37.51938 | -4.84718 | 23916 ft | 239 kts | 190° |
| 2026-04-28 11:36 | 37.50290 | -4.85049 | 23915 ft | 239 kts | 190° |
| 2026-04-28 11:36 | 37.48650 | -4.85378 | 23913 ft | 239 kts | 190° |
| 2026-04-28 11:37 | 37.47009 | -4.85708 | 23916 ft | 239 kts | 190° |
| 2026-04-28 11:37 | 37.45367 | -4.86037 | 23915 ft | 239 kts | 190° |
| 2026-04-28 11:37 | 37.43726 | -4.86366 | 23916 ft | 239 kts | 190° |
| 2026-04-28 11:37 | 37.42082 | -4.86696 | 23917 ft | 239 kts | 190° |
| 2026-04-28 11:38 | 37.40460 | -4.87021 | 23915 ft | 239 kts | 190° |
| 2026-04-28 11:38 | 37.38819 | -4.87349 | 23915 ft | 238 kts | 190° |
| 2026-04-28 11:38 | 37.37180 | -4.87678 | 23912 ft | 238 kts | 189° |
| 2026-04-28 11:38 | 37.35542 | -4.88006 | 23910 ft | 238 kts | 189° |
| 2026-04-28 11:39 | 37.33910 | -4.88332 | 23913 ft | 237 kts | 190° |
| 2026-04-28 11:39 | 37.32281 | -4.88658 | 23915 ft | 237 kts | 190° |
| 2026-04-28 11:39 | 37.30653 | -4.88983 | 23917 ft | 237 kts | 190° |
| 2026-04-28 11:39 | 37.29029 | -4.89308 | 23918 ft | 235 kts | 190° |
| 2026-04-28 11:40 | 37.27429 | -4.89627 | 23917 ft | 236 kts | 189° |
| 2026-04-28 11:40 | 37.25805 | -4.89951 | 23920 ft | 236 kts | 189° |
| 2026-04-28 11:40 | 37.24176 | -4.90276 | 23916 ft | 237 kts | 189° |
| 2026-04-28 11:40 | 37.22539 | -4.90603 | 23920 ft | 238 kts | 189° |
| 2026-04-28 11:41 | 37.20902 | -4.90929 | 23927 ft | 238 kts | 190° |
| 2026-04-28 11:41 | 37.19268 | -4.91255 | 23929 ft | 237 kts | 189° |
| 2026-04-28 11:41 | 37.17638 | -4.91579 | 23930 ft | 237 kts | 190° |
| 2026-04-28 11:41 | 37.16011 | -4.91903 | 23929 ft | 237 kts | 189° |
| 2026-04-28 11:42 | 37.14387 | -4.92227 | 23929 ft | 236 kts | 190° |
| 2026-04-28 11:42 | 37.12759 | -4.92550 | 23930 ft | 237 kts | 189° |
| 2026-04-28 11:42 | 37.11127 | -4.92875 | 23930 ft | 238 kts | 189° |
| 2026-04-28 11:42 | 37.09511 | -4.93195 | 23929 ft | 239 kts | 189° |
| 2026-04-28 11:43 | 37.07848 | -4.93526 | 23928 ft | 239 kts | 189° |
| 2026-04-28 11:43 | 37.06237 | -4.93891 | 23927 ft | 237 kts | 197° |
| 2026-04-28 11:43 | 37.04817 | -4.94914 | 23932 ft | 237 kts | 222° |
| 2026-04-28 11:43 | 37.03655 | -4.96376 | 23942 ft | 237 kts | 224° |
| 2026-04-28 11:44 | 37.02514 | -4.97869 | 23948 ft | 238 kts | 225° |
| 2026-04-28 11:44 | 37.01364 | -4.99359 | 23947 ft | 238 kts | 224° |
| 2026-04-28 11:44 | 37.00204 | -5.00848 | 23945 ft | 239 kts | 224° |
| 2026-04-28 11:44 | 36.99042 | -5.02341 | 23946 ft | 240 kts | 224° |
| 2026-04-28 11:45 | 36.97882 | -5.03834 | 23937 ft | 239 kts | 224° |
| 2026-04-28 11:45 | 36.96721 | -5.05328 | 23953 ft | 239 kts | 224° |
| 2026-04-28 11:45 | 36.95562 | -5.06816 | 23940 ft | 239 kts | 224° |
| 2026-04-28 11:45 | 36.94401 | -5.08307 | 23948 ft | 239 kts | 224° |
| 2026-04-28 11:46 | 36.93257 | -5.09776 | 23940 ft | 239 kts | 224° |
| 2026-04-28 11:46 | 36.92093 | -5.11269 | 23946 ft | 240 kts | 224° |
| 2026-04-28 11:46 | 36.90931 | -5.12761 | 23946 ft | 240 kts | 224° |
| 2026-04-28 11:46 | 36.89766 | -5.14254 | 23955 ft | 239 kts | 224° |
| 2026-04-28 11:47 | 36.88603 | -5.15744 | 23948 ft | 240 kts | 224° |
| 2026-04-28 11:47 | 36.87438 | -5.17235 | 23940 ft | 240 kts | 224° |
| 2026-04-28 11:47 | 36.86275 | -5.18725 | 23932 ft | 240 kts | 224° |
| 2026-04-28 11:47 | 36.85102 | -5.20226 | 23930 ft | 241 kts | 224° |
| 2026-04-28 11:48 | 36.83930 | -5.21725 | 23931 ft | 241 kts | 224° |
| 2026-04-28 11:48 | 36.82759 | -5.23222 | 23943 ft | 241 kts | 224° |
| 2026-04-28 11:48 | 36.81590 | -5.24715 | 23945 ft | 241 kts | 224° |
| 2026-04-28 11:48 | 36.80419 | -5.26211 | 23943 ft | 241 kts | 224° |
| 2026-04-28 11:49 | 36.79248 | -5.27707 | 23940 ft | 241 kts | 224° |
| 2026-04-28 11:49 | 36.78076 | -5.29202 | 23937 ft | 241 kts | 224° |
| 2026-04-28 11:49 | 36.76914 | -5.30685 | 23941 ft | 241 kts | 224° |
| 2026-04-28 11:49 | 36.75741 | -5.32180 | 23940 ft | 241 kts | 224° |
| 2026-04-28 11:50 | 36.74568 | -5.33674 | 23942 ft | 240 kts | 223° |
| 2026-04-28 11:50 | 36.73399 | -5.35162 | 23938 ft | 240 kts | 224° |
| 2026-04-28 11:50 | 36.72234 | -5.36647 | 23950 ft | 239 kts | 224° |
| 2026-04-28 11:50 | 36.71066 | -5.38133 | 23946 ft | 240 kts | 224° |
| 2026-04-28 11:51 | 36.69897 | -5.39620 | 23946 ft | 239 kts | 224° |
| 2026-04-28 11:51 | 36.68731 | -5.41103 | 23947 ft | 239 kts | 223° |
| 2026-04-28 11:51 | 36.67566 | -5.42583 | 23946 ft | 238 kts | 224° |
| 2026-04-28 11:51 | 36.66405 | -5.44057 | 23943 ft | 238 kts | 224° |
| 2026-04-28 11:52 | 36.65247 | -5.45527 | 23943 ft | 238 kts | 224° |
| 2026-04-28 11:52 | 36.64084 | -5.47003 | 23941 ft | 239 kts | 224° |
| 2026-04-28 11:52 | 36.62919 | -5.48482 | 23932 ft | 239 kts | 223° |
| 2026-04-28 11:52 | 36.61771 | -5.49937 | 23934 ft | 239 kts | 224° |
| 2026-04-28 11:53 | 36.60604 | -5.51415 | 23937 ft | 239 kts | 223° |
| 2026-04-28 11:53 | 36.59436 | -5.52895 | 23935 ft | 240 kts | 224° |
| 2026-04-28 11:53 | 36.58263 | -5.54380 | 23936 ft | 240 kts | 224° |
| 2026-04-28 11:53 | 36.57090 | -5.55864 | 23937 ft | 241 kts | 224° |
| 2026-04-28 11:54 | 36.55910 | -5.57357 | 23935 ft | 242 kts | 224° |
| 2026-04-28 11:54 | 36.54727 | -5.58853 | 23934 ft | 242 kts | 224° |
| 2026-04-28 11:54 | 36.53546 | -5.60345 | 23936 ft | 241 kts | 223° |
| 2026-04-28 11:54 | 36.52370 | -5.61830 | 23933 ft | 241 kts | 223° |
| 2026-04-28 11:55 | 36.51194 | -5.63316 | 23944 ft | 241 kts | 224° |
| 2026-04-28 11:55 | 36.50017 | -5.64800 | 23931 ft | 242 kts | 224° |
| 2026-04-28 11:55 | 36.48836 | -5.66291 | 23932 ft | 242 kts | 224° |
| 2026-04-28 11:55 | 36.47668 | -5.67763 | 23934 ft | 242 kts | 224° |
| 2026-04-28 11:56 | 36.46484 | -5.69256 | 23935 ft | 242 kts | 224° |
| 2026-04-28 11:56 | 36.45300 | -5.70747 | 23939 ft | 243 kts | 224° |
| 2026-04-28 11:56 | 36.44116 | -5.72237 | 23945 ft | 240 kts | 223° |
| 2026-04-28 11:56 | 36.42945 | -5.73714 | 23941 ft | 239 kts | 224° |
| 2026-04-28 11:57 | 36.41776 | -5.75183 | 23939 ft | 239 kts | 223° |
| 2026-04-28 11:57 | 36.40615 | -5.76643 | 23947 ft | 237 kts | 224° |
| 2026-04-28 11:57 | 36.39461 | -5.78094 | 23948 ft | 235 kts | 223° |
| 2026-04-28 11:57 | 36.38316 | -5.79532 | 23936 ft | 234 kts | 223° |
| 2026-04-28 11:58 | 36.37169 | -5.80971 | 23930 ft | 234 kts | 223° |
| 2026-04-28 11:58 | 36.36030 | -5.82401 | 23928 ft | 233 kts | 223° |
| 2026-04-28 11:58 | 36.34903 | -5.83814 | 23769 ft | 236 kts | 224° |
| 2026-04-28 11:58 | 36.33703 | -5.85318 | 23332 ft | 246 kts | 223° |
| 2026-04-28 11:59 | 36.32496 | -5.86831 | 22867 ft | 253 kts | 223° |
| 2026-04-28 11:59 | 36.31251 | -5.88393 | 22414 ft | 257 kts | 223° |
| 2026-04-28 11:59 | 36.29988 | -5.89974 | 22003 ft | 259 kts | 223° |
| 2026-04-28 11:59 | 36.28721 | -5.91561 | 21599 ft | 260 kts | 224° |
| 2026-04-28 12:00 | 36.27437 | -5.93167 | 21196 ft | 262 kts | 224° |
| 2026-04-28 12:00 | 36.26152 | -5.94774 | 20791 ft | 262 kts | 224° |
| 2026-04-28 12:00 | 36.24844 | -5.96331 | 20398 ft | 260 kts | 216° |
| 2026-04-28 12:00 | 36.23230 | -5.97283 | 20014 ft | 258 kts | 193° |
| 2026-04-28 12:01 | 36.21444 | -5.97435 | 19642 ft | 257 kts | 178° |
| 2026-04-28 12:01 | 36.19650 | -5.97336 | 19270 ft | 259 kts | 177° |
| 2026-04-28 12:01 | 36.17839 | -5.97228 | 18896 ft | 261 kts | 178° |
| 2026-04-28 12:01 | 36.16046 | -5.97134 | 18532 ft | 262 kts | 178° |
| 2026-04-28 12:02 | 36.14225 | -5.97043 | 18170 ft | 261 kts | 178° |
| 2026-04-28 12:02 | 36.12409 | -5.96949 | 17774 ft | 261 kts | 177° |
| 2026-04-28 12:02 | 36.10593 | -5.96854 | 17380 ft | 260 kts | 177° |
| 2026-04-28 12:02 | 36.08780 | -5.96760 | 16994 ft | 260 kts | 178° |
| 2026-04-28 12:03 | 36.06969 | -5.96665 | 16611 ft | 260 kts | 178° |
| 2026-04-28 12:03 | 36.05159 | -5.96572 | 16233 ft | 261 kts | 177° |
| 2026-04-28 12:03 | 36.03345 | -5.96478 | 15859 ft | 261 kts | 177° |
| 2026-04-28 12:03 | 36.01525 | -5.96383 | 15490 ft | 261 kts | 177° |
| 2026-04-28 12:04 | 35.99708 | -5.96289 | 15125 ft | 262 kts | 177° |
| 2026-04-28 12:04 | 35.97888 | -5.96195 | 14764 ft | 262 kts | 177° |
| 2026-04-28 12:04 | 35.96062 | -5.96100 | 14400 ft | 262 kts | 177° |
| 2026-04-28 12:04 | 35.94244 | -5.96007 | 14054 ft | 263 kts | 176° |
| 2026-04-28 12:05 | 35.92405 | -5.95911 | 13710 ft | 266 kts | 176° |
| 2026-04-28 12:05 | 35.90563 | -5.95815 | 13320 ft | 270 kts | 176° |
| 2026-04-28 12:05 | 35.88693 | -5.95634 | 12935 ft | 270 kts | 166° |
| 2026-04-28 12:05 | 35.86986 | -5.94706 | 12556 ft | 268 kts | 144° |
| 2026-04-28 12:06 | 35.85690 | -5.93079 | 12176 ft | 266 kts | 122° |
| 2026-04-28 12:06 | 35.84973 | -5.90990 | 11817 ft | 266 kts | 101° |
| 2026-04-28 12:06 | 35.84928 | -5.88734 | 11456 ft | 264 kts | 79° |
| 2026-04-28 12:06 | 35.85388 | -5.86559 | 11094 ft | 262 kts | 73° |
| 2026-04-28 12:07 | 35.85899 | -5.84408 | 10735 ft | 262 kts | 72° |
| 2026-04-28 12:07 | 35.86402 | -5.82267 | 10393 ft | 256 kts | 73° |
| 2026-04-28 12:07 | 35.86884 | -5.80174 | 10030 ft | 250 kts | 73° |
| 2026-04-28 12:07 | 35.87346 | -5.78165 | 9657 ft | 237 kts | 73° |
| 2026-04-28 12:08 | 35.87786 | -5.76263 | 9253 ft | 225 kts | 73° |
| 2026-04-28 12:08 | 35.88208 | -5.74441 | 8853 ft | 217 kts | 74° |
| 2026-04-28 12:08 | 35.88614 | -5.72683 | 8460 ft | 210 kts | 74° |
| 2026-04-28 12:08 | 35.89009 | -5.70971 | 8071 ft | 205 kts | 75° |
| 2026-04-28 12:09 | 35.89395 | -5.69298 | 7692 ft | 201 kts | 75° |
| 2026-04-28 12:09 | 35.89774 | -5.67654 | 7318 ft | 197 kts | 75° |
| 2026-04-28 12:09 | 35.90214 | -5.66078 | 6947 ft | 193 kts | 65° |
| 2026-04-28 12:09 | 35.90797 | -5.64572 | 6589 ft | 196 kts | 66° |
| 2026-04-28 12:10 | 35.91371 | -5.63033 | 6239 ft | 198 kts | 67° |
| 2026-04-28 12:10 | 35.91950 | -5.61488 | 5880 ft | 199 kts | 66° |
| 2026-04-28 12:10 | 35.92534 | -5.59934 | 5502 ft | 199 kts | 67° |
| 2026-04-28 12:10 | 35.92919 | -5.58909 | 5263 ft | 199 kts | 68° |
| 2026-04-28 12:11 | 35.93495 | -5.57380 | 5010 ft | 194 kts | 68° |
| 2026-04-28 12:11 | 35.94055 | -5.55888 | 4762 ft | 190 kts | 68° |
| 2026-04-28 12:11 | 35.94606 | -5.54419 | 4509 ft | 188 kts | 69° |
| 2026-04-28 12:11 | 35.95330 | -5.52486 | 4177 ft | 186 kts | 68° |
| 2026-04-28 12:12 | 35.95696 | -5.51511 | 4002 ft | 185 kts | 70° |
| 2026-04-28 12:12 | 35.96232 | -5.50081 | 3753 ft | 182 kts | 68° |
| 2026-04-28 12:12 | 35.96759 | -5.48675 | 3503 ft | 178 kts | 70° |
| 2026-04-28 12:12 | 35.97274 | -5.47303 | 3262 ft | 174 kts | 70° |
| 2026-04-28 12:13 | 35.97777 | -5.45956 | 3012 ft | 172 kts | 70° |
| 2026-04-28 12:13 | 35.98276 | -5.44618 | 2763 ft | 170 kts | 69° |
| 2026-04-28 12:13 | 35.98765 | -5.43314 | 2605 ft | 166 kts | 69° |
| 2026-04-28 12:13 | 35.99251 | -5.42012 | 2463 ft | 168 kts | 69° |
| 2026-04-28 12:14 | 35.99826 | -5.40761 | 2321 ft | 175 kts | 49° |
| 2026-04-28 12:14 | 36.00949 | -5.40070 | 2136 ft | 187 kts | 11° |
| 2026-04-28 12:14 | 36.02254 | -5.40104 | 1923 ft | 192 kts | 1° |
| 2026-04-28 12:14 | 36.03591 | -5.40186 | 1785 ft | 192 kts | 2° |
| 2026-04-28 12:15 | 36.04922 | -5.40258 | 1635 ft | 192 kts | 2° |
| 2026-04-28 12:15 | 36.06253 | -5.40327 | 1499 ft | 191 kts | 1° |
| 2026-04-28 12:15 | 36.07568 | -5.40395 | 1498 ft | 189 kts | 0° |
| 2026-04-28 12:15 | 36.08877 | -5.40462 | 1496 ft | 189 kts | 1° |
| 2026-04-28 12:16 | 36.10197 | -5.40531 | 1493 ft | 190 kts | 1° |
| 2026-04-28 12:16 | 36.11518 | -5.40600 | 1502 ft | 189 kts | 2° |
| 2026-04-28 12:16 | 36.12790 | -5.40519 | 1481 ft | 173 kts | 23° |
| 2026-04-28 12:16 | 36.13721 | -5.39843 | 1488 ft | 139 kts | 51° |
| 2026-04-28 12:17 | 36.14256 | -5.39036 | 1407 ft | 111 kts | 60° |
| 2026-04-28 12:17 | 36.14680 | -5.38414 | 1246 ft | 84 kts | 56° |
| 2026-04-28 12:17 | 36.14962 | -5.37751 | 766 ft | 91 kts | 78° |
| 2026-04-28 12:17 | 36.15052 | -5.36993 | 413 ft | 87 kts | 86° |
| 2026-04-28 12:18 | 36.15076 | -5.36274 | 124 ft | 78 kts | 84° |
| 2026-04-28 12:18 | 36.15101 | -5.35607 | 27 ft | 79 kts | 85° |
| 2026-04-28 12:18 | 36.15124 | -5.35019 | 19 ft | 53 kts | 89° |
| 2026-04-28 12:18 | 36.15133 | -5.34757 | 17 ft | 18 kts | 82° |
| 2026-04-28 12:19 | 36.15188 | -5.34682 | 16 ft | 10 kts | 355° |
| 2026-04-28 12:19 | 36.15231 | -5.34640 | 15 ft | 13 kts | 93° |
| 2026-04-28 12:19 | 36.15231 | -5.34543 | 14 ft | 14 kts | 88° |
| 2026-04-28 12:19 | 36.15253 | -5.34443 | 11 ft | 7 kts | 18° |
| 2026-04-28 12:20 | 36.15293 | -5.34420 | 12 ft | 7 kts | 66° |
| 2026-04-28 12:20 | 36.15291 | -5.34404 | 12 ft | 0 kts | 113° |